This is the latest recevied weather packets stored in our database for station/object DL1NUX-15. If no packets are shown the sender has not sent any weather packets the latest 10 day(s).
| Time | Temp. | Humidity | Pressure | Rain* | Wind** | Luminosity | Snow |
|---|---|---|---|---|---|---|---|
| 1777526125 | 5° C | 48% | 1031.8 hPa | 0 mm | - | 58 W/m² | - |
| 1777524925 | 3.33° C | 52% | 1031.8 hPa | 0 mm | - | 34 W/m² | - |
| 1777524326 | 3.33° C | 53% | 1031.7 hPa | 0 mm | - | 25 W/m² | - |
| 1777523727 | 2.78° C | 54% | 1031.6 hPa | 0 mm | - | 22 W/m² | - |
| 1777522528 | 2.22° C | 55% | 1031.6 hPa | 0 mm | - | 8 W/m² | - |
| 1777519529 | 1.67° C | 59% | 1031.3 hPa | 0 mm | - | 0 W/m² | - |
| 1777518330 | 2.22° C | 58% | 1031.3 hPa | 0 mm | - | 0 W/m² | - |
| 1777517731 | 2.22° C | 57% | 1031.2 hPa | 0 mm | - | 0 W/m² | - |
| 1777516531 | 3.33° C | 53% | 1031.2 hPa | 0 mm | - | 0 W/m² | - |
| 1777515931 | 3.33° C | 52% | 1031 hPa | 0 mm | - | 0 W/m² | - |
| 1777514133 | 3.89° C | 51% | 1030.9 hPa | 0 mm | - | 0 W/m² | - |
| 1777512934 | 3.89° C | 51% | 1030.8 hPa | 0 mm | - | 0 W/m² | - |
| 1777511136 | 3.89° C | 50% | 1030.7 hPa | 0 mm | - | 0 W/m² | - |
| 1777510536 | 4.44° C | 50% | 1030.7 hPa | 0 mm | - | 0 W/m² | - |
| 1777509336 | 4.44° C | 49% | 1030.6 hPa | 0 mm | - | 0 W/m² | - |
| 1777508137 | 5° C | 49% | 1030.7 hPa | 0 mm | - | 0 W/m² | - |
| 1777506338 | 5° C | 49% | 1030.8 hPa | 0 mm | - | 0 W/m² | - |
| 1777505739 | 5° C | 48% | 1030.7 hPa | 0 mm | - | 0 W/m² | - |
| 1777504539 | 5.56° C | 48% | 1030.7 hPa | 0 mm | - | 0 W/m² | - |
| 1777503340 | 5.56° C | 47% | 1030.5 hPa | 0 mm | - | 0 W/m² | - |
| 1777502741 | 6.11° C | 47% | 1030.4 hPa | 0 mm | - | 0 W/m² | - |
| 1777500942 | 6.11° C | 46% | 1030 hPa | 0 mm | - | 0 W/m² | - |
| 1777500343 | 6.67° C | 46% | 1029.9 hPa | 0 mm | - | 0 W/m² | - |
| 1777497345 | 7.22° C | 44% | 1029.6 hPa | 0 mm | - | 0 W/m² | - |
| 1777494946 | 7.78° C | 43% | 1029.1 hPa | 0 mm | - | 0 W/m² | - |
* Rain latest hour (hover to see other rain measurements)
** Current wind speed in m/s (hover to see current wind gust speed)